createdAt,value
2019-05-28T00:00:59.673Z,15.90
2019-05-28T00:07:04.031Z,15.18
2019-05-28T00:13:08.336Z,15.95
2019-05-28T00:19:12.516Z,17.00
2019-05-28T00:25:17.024Z,15.95
2019-05-28T00:31:21.436Z,18.02
2019-05-28T00:37:25.658Z,15.85
2019-05-28T00:43:29.962Z,17.45
2019-05-28T00:49:34.194Z,18.50
2019-05-28T00:55:39.159Z,19.17
2019-05-28T01:01:43.369Z,20.40
2019-05-28T01:07:47.576Z,15.83
2019-05-28T01:13:51.794Z,20.50
2019-05-28T01:19:55.989Z,17.17
2019-05-28T01:26:00.255Z,19.77
2019-05-28T01:32:04.470Z,17.85
2019-05-28T01:38:08.657Z,15.70
2019-05-28T01:44:12.494Z,20.97
2019-05-28T01:50:16.380Z,17.87
2019-05-28T01:56:20.590Z,21.65
2019-05-28T02:02:24.267Z,19.57
2019-05-28T02:08:27.948Z,15.28
2019-05-28T02:14:31.635Z,24.45
2019-05-28T02:20:35.389Z,19.20
2019-05-28T02:26:39.598Z,16.87
2019-05-28T02:32:44.082Z,18.37
2019-05-28T02:38:48.344Z,17.85
2019-05-28T02:44:52.645Z,13.80
2019-05-28T02:51:02.208Z,17.40
2019-05-28T02:57:06.409Z,16.80
2019-05-28T03:03:12.122Z,14.87
2019-05-28T03:09:18.683Z,15.03
2019-05-28T03:15:22.886Z,17.98
2019-05-28T03:21:28.138Z,17.48
2019-05-28T03:27:32.366Z,14.83
2019-05-28T03:33:36.598Z,14.45
2019-05-28T03:39:46.313Z,16.80
2019-05-28T03:45:50.517Z,18.50
2019-05-28T03:51:54.818Z,12.43
2019-05-28T03:57:59.021Z,16.20
2019-05-28T04:04:03.358Z,12.75
2019-05-28T04:10:07.574Z,16.80
2019-05-28T04:16:12.000Z,15.48
2019-05-28T04:22:16.309Z,14.30
2019-05-28T04:28:20.531Z,17.27
2019-05-28T04:34:24.822Z,16.57
2019-05-28T04:40:29.030Z,10.35
2019-05-28T04:46:33.253Z,8.83
2019-05-28T04:52:37.600Z,8.48
2019-05-28T04:58:41.919Z,11.43
2019-05-28T05:04:46.217Z,8.75
2019-05-28T05:10:50.487Z,12.05
2019-05-28T05:16:54.775Z,8.65
2019-05-28T05:22:58.481Z,7.12
2019-05-28T05:29:02.753Z,8.83
2019-05-28T05:35:06.993Z,9.35
2019-05-28T05:41:11.241Z,6.70
2019-05-28T05:47:15.573Z,14.18
2019-05-28T05:53:19.954Z,7.15
2019-05-28T05:59:24.163Z,5.03
2019-05-28T06:05:28.434Z,3.60
2019-05-28T06:11:32.736Z,6.65
2019-05-28T06:17:37.008Z,1.98
2019-05-28T06:23:41.322Z,3.10
2019-05-28T06:29:45.683Z,2.00
2019-05-28T06:35:50.065Z,2.50
2019-05-28T06:41:54.408Z,1.47
2019-05-28T06:47:58.745Z,1.70
2019-05-28T06:54:03.157Z,2.92
2019-05-28T07:00:08.132Z,3.55
2019-05-28T07:06:12.370Z,1.98
2019-05-28T07:12:18.225Z,0.98
2019-05-28T07:18:22.661Z,2.47
2019-05-28T07:24:26.877Z,1.82
2019-05-28T07:30:31.082Z,1.62
2019-05-28T07:36:35.380Z,2.70
2019-05-28T07:42:39.579Z,2.72
2019-05-28T07:48:44.050Z,1.40
2019-05-28T07:54:48.323Z,3.67
2019-05-28T08:00:52.605Z,1.72
2019-05-28T08:06:56.860Z,2.15
2019-05-28T08:13:01.200Z,1.45
2019-05-28T08:19:08.740Z,2.47
2019-05-28T08:25:27.583Z,3.22
2019-05-28T08:31:21.124Z,1.37
2019-05-28T08:37:23.539Z,1.87
2019-05-28T08:43:27.918Z,1.80
2019-05-28T08:49:32.295Z,1.20
2019-05-28T08:55:36.604Z,2.17
2019-05-28T09:01:40.825Z,3.62
2019-05-28T09:07:45.215Z,4.17
2019-05-28T09:13:49.432Z,3.55
2019-05-28T09:19:53.704Z,2.30
2019-05-28T09:25:58.002Z,1.05
2019-05-28T09:32:02.213Z,1.80
2019-05-28T09:38:06.474Z,2.05
2019-05-28T09:44:10.690Z,2.75
2019-05-28T09:50:29.968Z,3.05
2019-05-28T09:56:22.138Z,1.92
2019-05-28T10:02:26.684Z,2.58
2019-05-28T10:08:30.900Z,2.12
2019-05-28T10:14:35.074Z,1.52
2019-05-28T10:20:39.288Z,2.52
2019-05-28T10:26:43.584Z,1.62
2019-05-28T10:32:47.849Z,1.40
2019-05-28T10:38:52.540Z,1.05
2019-05-28T10:44:57.251Z,3.25
2019-05-28T10:51:01.525Z,2.75
2019-05-28T10:57:05.911Z,4.45
2019-05-28T11:03:10.193Z,2.22
2019-05-28T11:09:14.414Z,2.00
2019-05-28T11:15:23.772Z,2.75
2019-05-28T11:21:27.102Z,1.98
2019-05-28T11:27:31.357Z,2.55
2019-05-28T11:33:35.673Z,2.65
2019-05-28T11:39:39.875Z,1.87
2019-05-28T11:45:44.085Z,3.70
2019-05-28T11:51:48.267Z,3.47
2019-05-28T11:57:52.551Z,2.72
2019-05-28T12:03:57.231Z,1.98
2019-05-28T12:10:01.516Z,3.50
2019-05-28T12:16:05.993Z,4.10
2019-05-28T12:22:10.307Z,3.27
2019-05-28T12:28:14.572Z,4.37
2019-05-28T12:34:18.789Z,2.40
2019-05-28T12:40:23.178Z,3.45
2019-05-28T12:46:27.402Z,4.22
2019-05-28T12:52:31.698Z,2.87
2019-05-28T12:58:42.486Z,5.05
2019-05-28T13:04:42.070Z,5.65
2019-05-28T13:10:46.272Z,5.58
2019-05-28T13:16:50.552Z,4.78
2019-05-28T13:22:54.861Z,3.45
2019-05-28T13:28:59.144Z,3.33
2019-05-28T13:35:03.566Z,2.40
2019-05-28T13:41:07.935Z,4.55
2019-05-28T13:47:30.016Z,2.65
2019-05-28T13:53:18.917Z,2.08
2019-05-28T13:59:23.168Z,3.80
2019-05-28T14:05:27.462Z,5.00
2019-05-28T14:11:31.927Z,5.83
2019-05-28T14:17:36.311Z,6.00
2019-05-28T14:23:40.584Z,5.97
2019-05-28T14:29:44.903Z,4.97
2019-05-28T14:35:49.122Z,3.08
2019-05-28T14:41:53.346Z,3.85
2019-05-28T14:47:57.573Z,4.20
2019-05-28T14:54:01.947Z,2.52
2019-05-28T15:00:07.061Z,4.78
2019-05-28T15:06:11.491Z,5.15
2019-05-28T15:12:15.726Z,2.80
2019-05-28T15:18:20.034Z,4.87
2019-05-28T15:24:24.234Z,2.60
2019-05-28T15:30:28.623Z,3.45
2019-05-28T15:36:32.865Z,5.92
2019-05-28T15:42:37.187Z,5.92
2019-05-28T15:48:41.421Z,7.55
2019-05-28T15:54:45.636Z,6.30
2019-05-28T16:00:50.096Z,5.67
2019-05-28T16:06:54.391Z,6.20
2019-05-28T16:12:58.619Z,6.87
2019-05-28T16:19:02.921Z,9.00
2019-05-28T16:25:08.590Z,9.23
2019-05-28T16:31:13.677Z,7.30
2019-05-28T16:37:18.062Z,7.37
2019-05-28T16:43:22.342Z,4.12
2019-05-28T16:49:26.590Z,6.10
2019-05-28T16:55:30.825Z,6.20
2019-05-28T17:01:35.249Z,3.15
2019-05-28T17:07:39.515Z,6.90
2019-05-28T17:13:48.211Z,7.47
2019-05-28T17:19:49.871Z,8.30
2019-05-28T17:25:54.348Z,5.58
2019-05-28T17:31:58.529Z,6.47
2019-05-28T17:38:02.770Z,7.30
2019-05-28T17:44:07.072Z,5.75
2019-05-28T17:50:12.700Z,4.37
2019-05-28T17:56:17.194Z,5.03
2019-05-28T18:02:21.461Z,4.33
2019-05-28T18:08:29.228Z,3.77
2019-05-28T18:14:31.798Z,4.45
2019-05-28T18:20:36.177Z,4.12
2019-05-28T18:26:40.371Z,4.62
2019-05-28T18:32:44.665Z,4.60
2019-05-28T18:38:48.859Z,3.92
2019-05-28T18:44:53.236Z,5.60
2019-05-28T18:50:57.800Z,5.62
2019-05-28T18:57:02.052Z,6.37
2019-05-28T19:03:06.226Z,4.65
2019-05-28T19:09:11.631Z,6.58
2019-05-28T19:15:16.194Z,5.78
2019-05-28T19:21:20.565Z,7.10
2019-05-28T19:27:24.843Z,4.97
2019-05-28T19:33:29.141Z,4.87
2019-05-28T19:39:33.897Z,5.60
2019-05-28T19:45:38.281Z,5.22
2019-05-28T19:51:42.811Z,6.47
2019-05-28T19:57:47.023Z,7.50
2019-05-28T20:03:51.248Z,6.90
2019-05-28T20:09:55.427Z,7.95
2019-05-28T20:16:00.068Z,5.22
2019-05-28T20:22:03.798Z,5.95
2019-05-28T20:28:07.536Z,6.50
2019-05-28T20:34:11.827Z,5.28
2019-05-28T20:40:16.228Z,6.58
2019-05-28T20:46:20.426Z,6.90
2019-05-28T20:52:24.699Z,7.55
2019-05-28T20:58:39.769Z,8.25
2019-05-28T21:04:35.060Z,8.55
2019-05-28T21:10:38.716Z,7.42
2019-05-28T21:16:42.490Z,8.28
2019-05-28T21:22:46.269Z,7.60
2019-05-28T21:28:50.541Z,9.55
2019-05-28T21:34:59.053Z,8.65
2019-05-28T21:41:02.873Z,7.58
2019-05-28T21:47:07.146Z,12.73
2019-05-28T21:53:11.471Z,12.58
2019-05-28T21:59:15.693Z,9.20
2019-05-28T22:05:20.078Z,10.15
2019-05-28T22:11:24.621Z,7.80
2019-05-28T22:17:28.827Z,9.63
2019-05-28T22:23:33.071Z,7.85
2019-05-28T22:29:37.485Z,8.10
2019-05-28T22:35:41.827Z,7.78
2019-05-28T22:41:46.029Z,7.90
2019-05-28T22:47:50.443Z,8.78
2019-05-28T22:53:54.680Z,10.10
2019-05-28T22:59:58.941Z,8.98
2019-05-28T23:06:03.194Z,10.50
2019-05-28T23:12:08.164Z,9.25
2019-05-28T23:18:12.463Z,10.05
2019-05-28T23:24:16.786Z,11.45
2019-05-28T23:30:25.081Z,11.35
2019-05-28T23:36:27.239Z,9.23
2019-05-28T23:42:31.526Z,8.30
2019-05-28T23:48:36.015Z,8.05
2019-05-28T23:54:40.345Z,12.47
